createdAt,value
2019-04-01T04:00:39.988Z,5.80
2019-04-01T04:03:09.196Z,5.70
2019-04-01T04:05:38.297Z,5.70
2019-04-01T04:08:07.313Z,5.50
2019-04-01T04:10:36.197Z,5.70
2019-04-01T04:13:05.372Z,5.70
2019-04-01T04:15:34.583Z,5.70
2019-04-01T04:18:03.751Z,5.70
2019-04-01T04:20:32.612Z,5.70
2019-04-01T04:23:01.435Z,5.80
2019-04-01T04:25:30.856Z,5.50
2019-04-01T04:27:59.721Z,5.40
2019-04-01T04:30:28.586Z,5.20
2019-04-01T04:32:57.479Z,5.10
2019-04-01T04:35:26.257Z,5.10
2019-04-01T04:37:55.178Z,5.10
2019-04-01T04:40:24.472Z,5.00
2019-04-01T04:42:54.232Z,5.40
2019-04-01T04:45:23.114Z,5.10
2019-04-01T04:47:51.988Z,5.20
2019-04-01T04:50:20.888Z,5.40
2019-04-01T04:52:50.465Z,5.70
2019-04-01T04:55:19.393Z,5.50
2019-04-01T04:57:49.112Z,5.30
2019-04-01T05:00:19.452Z,5.20
2019-04-01T05:02:48.664Z,5.30
2019-04-01T05:05:17.946Z,5.10
2019-04-01T05:07:47.704Z,4.90
2019-04-01T05:10:17.255Z,5.30
2019-04-01T05:12:47.163Z,5.20
2019-04-01T05:15:16.214Z,4.90
2019-04-01T05:17:45.419Z,5.10
2019-04-01T05:20:16.656Z,5.40
2019-04-01T05:23:05.357Z,5.20
2019-04-01T05:25:35.122Z,5.10
2019-04-01T05:28:04.186Z,5.40
2019-04-01T05:30:36.680Z,5.30
2019-04-01T05:33:05.891Z,5.30
2019-04-01T05:35:36.476Z,5.20
2019-04-01T05:38:06.864Z,5.50
2019-04-01T05:40:36.188Z,5.60
2019-04-01T05:43:05.268Z,5.70
2019-04-01T05:45:34.708Z,5.70
2019-04-01T05:48:03.754Z,5.80
2019-04-01T05:50:33.468Z,6.00
2019-04-01T05:53:03.040Z,5.90
2019-04-01T05:55:32.331Z,5.80
2019-04-01T05:58:01.744Z,5.70
2019-04-01T06:00:35.900Z,5.80
2019-04-01T06:03:04.939Z,6.20
2019-04-01T06:05:33.793Z,6.50
2019-04-01T06:08:03.536Z,6.40
2019-04-01T06:10:32.746Z,6.20
2019-04-01T06:13:02.028Z,6.40
2019-04-01T06:15:31.265Z,6.60
2019-04-01T06:18:00.221Z,6.50
2019-04-01T06:20:29.531Z,6.40
2019-04-01T06:22:59.081Z,6.40
2019-04-01T06:25:28.090Z,6.50
2019-04-01T06:27:57.429Z,6.20
2019-04-01T06:30:26.393Z,6.30
2019-04-01T06:32:55.824Z,6.60
2019-04-01T06:35:24.706Z,6.60
2019-04-01T06:37:53.631Z,6.40
2019-04-01T06:40:22.443Z,6.40
2019-04-01T06:42:51.622Z,6.60
2019-04-01T06:45:20.570Z,6.60
2019-04-01T06:47:49.873Z,6.50
2019-04-01T06:50:18.987Z,6.50
2019-04-01T06:52:47.784Z,6.60
2019-04-01T06:55:16.860Z,6.80
2019-04-01T06:57:45.675Z,6.80
2019-04-01T07:00:15.332Z,6.80
2019-04-01T07:02:44.447Z,7.10
2019-04-01T07:05:13.413Z,7.00
2019-04-01T07:07:42.736Z,6.80
2019-04-01T07:10:12.190Z,6.90
2019-04-01T07:12:41.999Z,7.00
2019-04-01T07:15:11.505Z,7.00
2019-04-01T07:17:40.291Z,6.90
2019-04-01T07:20:09.441Z,7.00
2019-04-01T07:22:38.844Z,7.20
2019-04-01T07:25:07.922Z,6.70
2019-04-01T07:30:11.764Z,6.60
2019-04-01T07:32:40.951Z,7.20
2019-04-01T07:35:10.120Z,7.00
2019-04-01T07:37:39.552Z,7.10
2019-04-01T07:40:09.392Z,7.30
2019-04-01T07:42:38.972Z,7.20
2019-04-01T07:45:08.607Z,7.50
2019-04-01T07:47:37.841Z,7.20
2019-04-01T07:50:07.462Z,7.30
2019-04-01T07:52:36.283Z,7.20
2019-04-01T07:55:05.893Z,7.30
2019-04-01T07:57:34.961Z,7.50
2019-04-01T08:00:04.124Z,7.50
2019-04-01T08:02:33.304Z,7.60
2019-04-01T08:05:02.197Z,7.70
2019-04-01T08:07:31.452Z,7.80
2019-04-01T08:10:00.599Z,7.80
2019-04-01T08:12:29.457Z,7.80
2019-04-01T08:14:58.840Z,8.00
2019-04-01T08:17:27.873Z,8.20
2019-04-01T08:19:56.776Z,8.30
2019-04-01T08:22:25.945Z,8.50
2019-04-01T08:24:55.430Z,8.40
2019-04-01T08:27:24.672Z,8.30
2019-04-01T08:29:53.820Z,8.20
2019-04-01T08:32:23.585Z,8.50
2019-04-01T08:34:52.724Z,8.60
2019-04-01T08:37:22.233Z,8.30
2019-04-01T08:39:51.355Z,8.10
2019-04-01T08:42:20.555Z,8.10
2019-04-01T08:44:49.673Z,8.20
2019-04-01T08:47:18.699Z,8.20
2019-04-01T08:49:47.730Z,8.40
2019-04-01T08:52:16.760Z,8.40
2019-04-01T08:54:45.701Z,8.60
2019-04-01T08:57:15.812Z,8.80
2019-04-01T08:59:45.111Z,9.00
2019-04-01T09:02:18.201Z,8.90
2019-04-01T09:04:45.036Z,8.90
2019-04-01T09:07:13.912Z,9.00
2019-04-01T09:09:42.946Z,9.00
2019-04-01T09:12:12.226Z,8.90
2019-04-01T09:14:41.579Z,9.10
2019-04-01T09:17:10.715Z,9.20
2019-04-01T09:19:39.808Z,9.50
2019-04-01T09:22:08.687Z,9.60
2019-04-01T09:24:37.548Z,9.60
2019-04-01T09:27:06.626Z,9.80
2019-04-01T09:29:36.344Z,10.00
2019-04-01T09:32:05.707Z,9.60
2019-04-01T09:34:35.140Z,9.80
2019-04-01T09:37:03.928Z,9.70
2019-04-01T09:39:33.187Z,10.00
2019-04-01T09:42:01.984Z,9.90
2019-04-01T09:44:36.964Z,9.90
2019-04-01T09:47:02.067Z,10.10
2019-04-01T09:49:30.957Z,10.20
2019-04-01T09:52:03.644Z,10.20
2019-04-01T09:54:30.637Z,10.00
2019-04-01T09:56:59.818Z,10.20
2019-04-01T09:59:28.792Z,10.30
2019-04-01T10:01:57.746Z,10.50
2019-04-01T10:04:26.568Z,10.60
2019-04-01T10:06:55.632Z,10.80
2019-04-01T10:09:25.075Z,11.00
2019-04-01T10:11:54.209Z,11.10
2019-04-01T10:14:23.592Z,11.00
2019-04-01T10:16:52.500Z,10.70
2019-04-01T10:19:21.659Z,10.80
2019-04-01T10:21:50.761Z,10.90
2019-04-01T10:24:20.170Z,10.90
2019-04-01T10:26:49.675Z,10.90
2019-04-01T10:29:18.551Z,11.00
2019-04-01T10:31:47.360Z,10.80
2019-04-01T10:34:16.165Z,10.90
2019-04-01T10:36:45.261Z,11.00
2019-04-01T10:39:14.124Z,11.10
2019-04-01T10:41:42.923Z,11.10
2019-04-01T10:44:12.208Z,11.00
2019-04-01T10:46:41.431Z,10.80
2019-04-01T10:49:10.602Z,10.80
2019-04-01T10:51:39.522Z,11.00
2019-04-01T10:54:08.451Z,11.10
2019-04-01T10:56:37.364Z,11.40
2019-04-01T10:59:06.490Z,11.40
2019-04-01T11:01:35.501Z,11.70
2019-04-01T11:04:04.526Z,11.80
2019-04-01T11:06:33.594Z,11.80
2019-04-01T11:09:02.531Z,11.60
2019-04-01T11:11:31.789Z,11.60
2019-04-01T11:14:00.654Z,11.70
2019-04-01T11:16:31.703Z,11.90
2019-04-01T11:19:00.285Z,11.80
2019-04-01T11:21:29.073Z,11.80
2019-04-01T11:23:57.880Z,11.60
2019-04-01T11:26:26.675Z,11.60
2019-04-01T11:28:56.117Z,11.50
2019-04-01T11:31:25.197Z,11.50
2019-04-01T11:33:54.524Z,11.70
2019-04-01T11:36:23.417Z,11.60
2019-04-01T11:38:52.844Z,11.60
2019-04-01T11:41:21.477Z,11.70
2019-04-01T11:43:50.794Z,11.90
2019-04-01T11:46:22.517Z,11.90
2019-04-01T11:48:52.150Z,12.00
2019-04-01T11:51:32.416Z,11.90
2019-04-01T11:53:51.953Z,12.10
2019-04-01T11:56:20.764Z,12.20
2019-04-01T11:58:49.683Z,12.00
2019-04-01T12:01:18.504Z,11.80
2019-04-01T12:03:47.649Z,11.90
2019-04-01T12:06:16.639Z,12.00
2019-04-01T12:08:46.127Z,12.20
2019-04-01T12:11:15.012Z,11.90
2019-04-01T12:13:44.303Z,12.10
2019-04-01T12:16:14.157Z,12.10
2019-04-01T12:18:44.670Z,12.20
2019-04-01T12:21:13.623Z,12.40
2019-04-01T12:23:42.435Z,12.40
2019-04-01T12:26:15.282Z,12.60
2019-04-01T12:28:43.621Z,12.40
2019-04-01T12:31:13.102Z,12.30
2019-04-01T12:33:42.133Z,12.50
2019-04-01T12:36:11.704Z,12.10
2019-04-01T12:38:40.971Z,12.30
2019-04-01T12:41:10.449Z,12.30
2019-04-01T12:43:39.631Z,12.50
2019-04-01T12:46:08.796Z,12.50
2019-04-01T12:48:38.820Z,12.70
2019-04-01T12:51:08.229Z,12.60
2019-04-01T12:53:37.421Z,12.70
2019-04-01T12:56:06.419Z,12.80
2019-04-01T12:58:35.217Z,13.00
2019-04-01T13:01:04.276Z,12.70
2019-04-01T13:03:33.503Z,12.70
2019-04-01T13:06:02.719Z,12.80
2019-04-01T13:08:31.717Z,12.70
2019-04-01T13:11:00.825Z,12.60
2019-04-01T13:13:29.606Z,12.70
2019-04-01T13:15:58.666Z,12.70
2019-04-01T13:18:28.264Z,12.70
2019-04-01T13:20:57.381Z,12.80
2019-04-01T13:23:26.495Z,12.90
2019-04-01T13:25:55.753Z,13.00
2019-04-01T13:28:26.015Z,12.90
2019-04-01T13:30:55.641Z,13.00
2019-04-01T13:33:24.785Z,13.10
2019-04-01T13:35:53.996Z,13.00
2019-04-01T13:38:23.199Z,12.90
2019-04-01T13:40:52.423Z,13.20
2019-04-01T13:43:21.316Z,13.20
2019-04-01T13:45:50.766Z,13.20
2019-04-01T13:48:19.881Z,13.10
2019-04-01T13:50:48.748Z,13.20
2019-04-01T13:53:17.544Z,13.20
2019-04-01T13:55:47.533Z,13.30
2019-04-01T13:58:17.773Z,13.30
2019-04-01T14:00:47.381Z,13.30
2019-04-01T14:03:16.708Z,13.20
2019-04-01T14:05:45.636Z,13.20
2019-04-01T14:08:14.768Z,13.00
2019-04-01T14:10:43.636Z,13.10
2019-04-01T14:13:13.164Z,13.00
2019-04-01T14:15:41.960Z,13.00
2019-04-01T14:18:11.012Z,13.00
2019-04-01T14:20:40.412Z,13.00
2019-04-01T14:23:09.464Z,13.10
2019-04-01T14:25:38.344Z,13.00
2019-04-01T14:28:07.151Z,12.90
2019-04-01T14:30:36.399Z,12.90
2019-04-01T14:33:05.938Z,12.80
2019-04-01T14:35:35.994Z,12.90
2019-04-01T14:38:05.072Z,13.00
2019-04-01T14:40:34.128Z,13.10
2019-04-01T14:43:03.087Z,13.20
2019-04-01T14:45:31.976Z,13.20
2019-04-01T14:48:01.599Z,13.20
2019-04-01T14:50:30.979Z,13.20
2019-04-01T14:53:00.320Z,13.30
2019-04-01T14:55:29.183Z,13.30
2019-04-01T14:58:00.346Z,13.30
2019-04-01T15:00:28.643Z,13.20
2019-04-01T15:02:57.762Z,13.20
2019-04-01T15:05:26.639Z,13.40
2019-04-01T15:07:56.084Z,13.40
2019-04-01T15:10:24.876Z,13.40
2019-04-01T15:13:05.166Z,13.30
2019-04-01T15:15:24.936Z,13.20
2019-04-01T15:17:54.104Z,13.20
2019-04-01T15:20:22.957Z,13.20
2019-04-01T15:22:53.135Z,13.20
2019-04-01T15:25:22.747Z,13.20
2019-04-01T15:27:52.252Z,13.30
2019-04-01T15:30:21.132Z,13.30
2019-04-01T15:32:50.367Z,13.20
2019-04-01T15:35:20.232Z,13.30
2019-04-01T15:37:49.021Z,13.30
2019-04-01T15:40:18.599Z,13.40
2019-04-01T15:42:47.873Z,13.40
2019-04-01T15:45:17.343Z,13.10
2019-04-01T15:47:46.150Z,13.10
2019-04-01T15:50:27.803Z,13.00
2019-04-01T15:52:47.090Z,13.10
2019-04-01T15:55:16.372Z,13.00
2019-04-01T15:57:45.480Z,12.90
2019-04-01T16:00:14.600Z,12.90
2019-04-01T16:02:43.881Z,12.80
2019-04-01T16:05:13.177Z,12.80
2019-04-01T16:07:42.197Z,12.90
2019-04-01T16:10:11.240Z,12.80
2019-04-01T16:12:40.336Z,12.80
2019-04-01T16:15:10.188Z,12.80
2019-04-01T16:17:39.376Z,12.70
2019-04-01T16:20:08.614Z,12.70
2019-04-01T16:22:37.839Z,12.60
2019-04-01T16:25:07.767Z,12.50
2019-04-01T16:27:37.144Z,12.60
2019-04-01T16:30:06.392Z,12.50
2019-04-01T16:32:36.191Z,12.40
2019-04-01T16:35:05.837Z,12.50
2019-04-01T16:37:35.182Z,12.40
2019-04-01T16:40:06.009Z,12.40
2019-04-01T16:42:35.599Z,12.30
2019-04-01T16:45:06.747Z,12.40
2019-04-01T16:47:36.069Z,12.50
2019-04-01T16:50:06.704Z,12.50
2019-04-01T16:52:35.628Z,12.30
2019-04-01T16:55:07.889Z,12.30
2019-04-01T16:57:37.263Z,12.30
2019-04-01T17:00:08.127Z,12.30
2019-04-01T17:02:37.499Z,12.20
2019-04-01T17:05:07.318Z,12.10
2019-04-01T17:07:36.711Z,12.30
2019-04-01T17:10:08.173Z,12.10
2019-04-01T17:12:37.092Z,12.00
2019-04-01T17:15:06.768Z,11.80
2019-04-01T17:17:35.648Z,11.80
2019-04-01T17:20:05.277Z,11.80
2019-04-01T17:22:34.564Z,11.70
2019-04-01T17:25:03.699Z,11.70
2019-04-01T17:27:32.625Z,11.60
2019-04-01T17:30:01.959Z,11.60
2019-04-01T17:32:31.764Z,11.40
2019-04-01T17:35:00.669Z,11.40
2019-04-01T17:37:30.582Z,11.40
2019-04-01T17:39:59.625Z,11.30
2019-04-01T17:42:28.884Z,11.30
2019-04-01T17:45:00.684Z,11.20
2019-04-01T17:47:32.881Z,11.10
2019-04-01T17:50:01.968Z,11.10
2019-04-01T17:52:30.860Z,11.00
2019-04-01T17:54:59.976Z,11.00
2019-04-01T17:57:29.979Z,11.00
2019-04-01T17:59:58.956Z,11.00
2019-04-01T18:02:43.239Z,10.80
2019-04-01T18:05:15.640Z,10.80
2019-04-01T18:07:45.472Z,10.70
2019-04-01T18:10:15.961Z,10.70
2019-04-01T18:12:45.596Z,10.80
2019-04-01T18:15:16.138Z,10.70
2019-04-01T18:17:45.508Z,10.60
2019-04-01T18:20:14.605Z,10.50
2019-04-01T18:22:44.065Z,10.50
2019-04-01T18:25:13.929Z,10.50
2019-04-01T18:27:44.218Z,10.40
2019-04-01T18:30:14.087Z,10.60
2019-04-01T18:32:43.205Z,10.40
2019-04-01T18:35:12.416Z,10.30
2019-04-01T18:37:41.469Z,10.40
2019-04-01T18:40:11.064Z,10.30
2019-04-01T18:42:40.200Z,10.30
2019-04-01T18:45:09.443Z,10.10
2019-04-01T18:47:39.097Z,10.10
2019-04-01T18:50:08.633Z,10.00
2019-04-01T18:52:38.371Z,10.10
2019-04-01T18:55:08.184Z,10.10
2019-04-01T18:57:38.042Z,10.00
2019-04-01T19:00:08.192Z,10.00
2019-04-01T19:02:37.771Z,10.00
2019-04-01T19:05:06.819Z,10.10
2019-04-01T19:07:35.838Z,10.20
2019-04-01T19:10:06.765Z,10.10
2019-04-01T19:12:36.358Z,10.00
2019-04-01T19:15:06.477Z,9.90
2019-04-01T19:17:35.427Z,9.80
2019-04-01T19:20:05.841Z,10.00
2019-04-01T19:22:35.232Z,10.00
2019-04-01T19:25:04.972Z,9.90
2019-04-01T19:27:34.146Z,9.80
2019-04-01T19:30:03.008Z,9.80
2019-04-01T19:32:32.435Z,9.90
2019-04-01T19:35:01.656Z,9.80
2019-04-01T19:37:33.808Z,9.70
2019-04-01T19:40:02.920Z,9.70
2019-04-01T19:42:32.316Z,9.70
2019-04-01T19:45:01.328Z,9.50
2019-04-01T19:47:30.440Z,9.60
2019-04-01T19:49:59.992Z,9.50
2019-04-01T19:52:28.876Z,9.60
2019-04-01T19:54:58.167Z,9.50
2019-04-01T19:57:28.143Z,9.50
2019-04-01T19:59:57.701Z,9.40
2019-04-01T20:02:27.472Z,9.50
2019-04-01T20:04:56.690Z,9.50
2019-04-01T20:07:25.683Z,9.50
2019-04-01T20:09:54.796Z,9.40
2019-04-01T20:12:23.584Z,9.50
2019-04-01T20:14:52.387Z,9.60
2019-04-01T20:17:21.596Z,9.50
2019-04-01T20:19:50.403Z,9.20
2019-04-01T20:22:19.611Z,9.30
2019-04-01T20:24:48.572Z,9.50
2019-04-01T20:27:20.557Z,9.50
2019-04-01T20:29:48.853Z,9.30
2019-04-01T20:32:19.963Z,9.00
2019-04-01T20:34:56.851Z,8.90
2019-04-01T20:37:19.016Z,9.00
2019-04-01T20:39:47.887Z,8.90
2019-04-01T20:42:17.475Z,8.80
2019-04-01T20:44:47.472Z,8.70
2019-04-01T20:47:16.953Z,8.50
2019-04-01T20:49:46.481Z,8.50
2019-04-01T20:52:15.559Z,8.60
2019-04-01T20:54:45.193Z,8.50
2019-04-01T20:57:14.361Z,8.50
2019-04-01T20:59:43.163Z,8.40
